Time;durP1;ratioP1;P1;durP2;ratioP2;P2;SDS_P1;SDS_P2;PMS_P1;PMS_P2;Temp;Humidity;BMP_temperature;BMP_pressure;BME280_temperature;BME280_humidity;BME280_pressure;Samples;Min_cycle;Max_cycle;Signal;HPM_P1;HPM_P2
2022/01/20 00:00:03;;;;;;;17.77;2.33;;;;;;;;;;5109456;28;20099;-80
2022/01/20 00:02:34;;;;;;;16.48;2.75;;;;;;;;;;5090761;28;20106;-80
2022/01/20 00:05:11;;;;;;;19.83;2.45;;;;;;;;;;5089278;28;20139;-80
2022/01/20 00:26:32;;;;;;;18.98;2.97;;;;;;;;;;5102601;28;20078;-81
2022/01/20 00:29:01;;;;;;;17.92;2.58;;;;;;;;;;5111885;27;20087;-81
2022/01/20 00:31:36;;;;;;;16.35;1.88;;;;;;;;;;5112949;28;20048;-80
2022/01/20 00:34:15;;;;;;;20.35;2.47;;;;;;;;;;5111796;28;20528;-81
2022/01/20 00:39:27;;;;;;;21.70;2.30;;;;;;;;;;5111204;28;20094;-81
2022/01/20 00:41:55;;;;;;;13.30;1.73;;;;;;;;;;5111709;28;20074;-80
2022/01/20 00:44:22;;;;;;;16.23;2.10;;;;;;;;;;5092850;28;20632;-81
2022/01/20 00:46:48;;;;;;;17.77;2.15;;;;;;;;;;5093317;28;20205;-80
2022/01/20 00:49:15;;;;;;;24.90;2.40;;;;;;;;;;5111537;28;20105;-82
2022/01/20 00:51:42;;;;;;;17.90;2.53;;;;;;;;;;5111743;28;20598;-80
2022/01/20 00:54:13;;;;;;;20.42;2.13;;;;;;;;;;5109884;28;20078;-81
2022/01/20 00:56:40;;;;;;;12.35;2.20;;;;;;;;;;5110128;27;20056;-82
2022/01/20 00:59:06;;;;;;;17.45;2.47;;;;;;;;;;5112177;28;20628;-80
2022/01/20 01:01:32;;;;;;;13.75;1.38;;;;;;;;;;5112176;27;20048;-81
2022/01/20 01:03:59;;;;;;;17.63;1.70;;;;;;;;;;5111540;28;20052;-80
2022/01/20 01:08:54;;;;;;;15.05;1.80;;;;;;;;;;5111657;28;20102;-81
2022/01/20 01:11:23;;;;;;;12.30;1.88;;;;;;;;;;5093944;28;20048;-81
2022/01/20 01:13:50;;;;;;;16.35;2.38;;;;;;;;;;5090584;28;20052;-81
2022/01/20 01:16:20;;;;;;;13.40;1.70;;;;;;;;;;5093855;28;20141;-81
2022/01/20 01:21:51;;;;;;;14.43;1.58;;;;;;;;;;5112281;28;20084;-81
2022/01/20 01:24:18;;;;;;;12.27;1.67;;;;;;;;;;5092059;28;20052;-80
2022/01/20 01:26:44;;;;;;;11.73;2.00;;;;;;;;;;5111839;27;20066;-81
2022/01/20 01:29:37;;;;;;;17.88;1.85;;;;;;;;;;5111714;28;20552;-81
2022/01/20 01:32:05;;;;;;;16.85;2.30;;;;;;;;;;5109632;28;20080;-80
2022/01/20 01:34:34;;;;;;;12.05;1.83;;;;;;;;;;5093285;28;21085;-80
2022/01/20 01:39:28;;;;;;;17.42;2.40;;;;;;;;;;5111530;28;20445;-81
2022/01/20 01:41:56;;;;;;;16.55;1.92;;;;;;;;;;5110964;28;20052;-81
2022/01/20 01:44:28;;;;;;;20.30;2.05;;;;;;;;;;5110914;28;20614;-80
2022/01/20 01:46:56;;;;;;;20.20;2.25;;;;;;;;;;5109532;27;20648;-81
2022/01/20 01:49:23;;;;;;;20.15;1.95;;;;;;;;;;5110665;28;20566;-80
2022/01/20 01:51:49;;;;;;;15.45;2.28;;;;;;;;;;5110952;28;20102;-81
2022/01/20 01:54:16;;;;;;;17.23;2.50;;;;;;;;;;5092752;28;20052;-81
2022/01/20 01:56:43;;;;;;;19.98;2.20;;;;;;;;;;5092422;28;20109;-81
2022/01/20 01:59:10;;;;;;;23.98;2.00;;;;;;;;;;5092477;28;21010;-81
2022/01/20 02:01:38;;;;;;;11.40;1.52;;;;;;;;;;5093632;28;20919;-82
2022/01/20 02:04:14;;;;;;;14.52;2.58;;;;;;;;;;5090036;28;20107;-81
2022/01/20 02:07:20;;;;;;;22.50;2.22;;;;;;;;;;5091908;28;20099;-80
2022/01/20 02:20:14;;;;;;;19.40;2.05;;;;;;;;;;5109773;28;20125;-80
2022/01/20 02:22:40;;;;;;;16.58;1.77;;;;;;;;;;5089642;28;20084;-80
2022/01/20 02:25:19;;;;;;;14.75;1.88;;;;;;;;;;5109745;28;20056;-80
2022/01/20 02:27:46;;;;;;;18.45;2.35;;;;;;;;;;5109678;28;20052;-80
2022/01/20 02:30:13;;;;;;;22.83;2.63;;;;;;;;;;5091957;27;20585;-81
2022/01/20 02:32:40;;;;;;;17.25;1.95;;;;;;;;;;5071866;28;20098;-81
2022/01/20 02:35:09;;;;;;;15.57;1.95;;;;;;;;;;5090399;28;20119;-82
2022/01/20 02:37:36;;;;;;;13.25;2.38;;;;;;;;;;5091166;28;20113;-81
2022/01/20 02:45:33;;;;;;;17.00;1.95;;;;;;;;;;5109430;28;20060;-80
2022/01/20 02:47:59;;;;;;;20.63;2.42;;;;;;;;;;5091369;28;20078;-80
2022/01/20 02:50:26;;;;;;;21.88;2.10;;;;;;;;;;5091088;28;20047;-80
2022/01/20 02:52:52;;;;;;;20.27;2.50;;;;;;;;;;5091896;28;20071;-80
2022/01/20 02:55:18;;;;;;;18.60;2.40;;;;;;;;;;5108488;28;20097;-80
2022/01/20 02:57:45;;;;;;;19.90;2.08;;;;;;;;;;5109614;28;20591;-80
2022/01/20 03:00:12;;;;;;;18.13;1.98;;;;;;;;;;5109298;28;20048;-81
2022/01/20 03:02:38;;;;;;;21.40;1.98;;;;;;;;;;5109705;28;20476;-80
2022/01/20 03:05:07;;;;;;;16.17;2.42;;;;;;;;;;5089949;28;20510;-81
2022/01/20 03:07:33;;;;;;;14.50;1.60;;;;;;;;;;5090160;28;20048;-80
2022/01/20 03:10:00;;;;;;;18.98;2.22;;;;;;;;;;5104023;28;20052;-81
2022/01/20 03:12:26;;;;;;;21.27;2.63;;;;;;;;;;5088777;28;20048;-82
2022/01/20 03:14:52;;;;;;;13.30;1.88;;;;;;;;;;5109100;28;20052;-81
2022/01/20 03:17:19;;;;;;;22.45;3.33;;;;;;;;;;5087466;28;20083;-81
2022/01/20 03:19:45;;;;;;;13.73;1.70;;;;;;;;;;5070208;28;20108;-80
2022/01/20 03:22:12;;;;;;;16.17;2.15;;;;;;;;;;5084694;28;20056;-81
2022/01/20 03:24:38;;;;;;;9.20;2.60;;;;;;;;;;5087808;28;20045;-82
2022/01/20 03:27:05;;;;;;;12.65;1.65;;;;;;;;;;5090117;28;20055;-82
2022/01/20 03:29:31;;;;;;;17.40;2.65;;;;;;;;;;5109614;28;20068;-81
2022/01/20 03:31:58;;;;;;;16.25;2.42;;;;;;;;;;5114580;27;20101;-81
2022/01/20 03:34:24;;;;;;;16.38;2.60;;;;;;;;;;5090630;28;20048;-80
2022/01/20 03:36:52;;;;;;;18.00;2.25;;;;;;;;;;5090466;28;20576;-80
2022/01/20 03:39:19;;;;;;;13.60;2.30;;;;;;;;;;5108517;28;20585;-80
2022/01/20 03:41:45;;;;;;;13.88;1.70;;;;;;;;;;5090349;28;20056;-80
2022/01/20 03:44:11;;;;;;;11.30;1.38;;;;;;;;;;5090508;28;20084;-79
2022/01/20 03:46:38;;;;;;;12.55;1.70;;;;;;;;;;5087950;27;20548;-80
2022/01/20 03:49:11;;;;;;;12.93;1.80;;;;;;;;;;5111411;28;20052;-79
2022/01/20 03:51:37;;;;;;;12.80;1.58;;;;;;;;;;5112241;28;20060;-79
2022/01/20 03:54:05;;;;;;;18.27;2.15;;;;;;;;;;5093325;28;20163;-79
2022/01/20 03:56:31;;;;;;;13.63;1.40;;;;;;;;;;5111384;28;20577;-79
2022/01/20 03:58:58;;;;;;;11.00;1.33;;;;;;;;;;5111381;28;20083;-80
2022/01/20 04:01:24;;;;;;;10.48;1.83;;;;;;;;;;5092958;28;20133;-79
2022/01/20 04:03:51;;;;;;;9.38;1.13;;;;;;;;;;5103528;28;20507;-81
2022/01/20 04:06:17;;;;;;;18.08;2.13;;;;;;;;;;5093368;28;21036;-79
2022/01/20 04:08:45;;;;;;;9.07;1.00;;;;;;;;;;5111754;28;20487;-79
2022/01/20 04:11:39;;;;;;;10.50;1.48;;;;;;;;;;5093168;28;20052;-80
2022/01/20 04:14:05;;;;;;;13.57;1.23;;;;;;;;;;5090219;28;20048;-81
2022/01/20 04:16:51;;;;;;;15.02;1.50;;;;;;;;;;5094109;28;20638;-81
2022/01/20 04:19:18;;;;;;;15.70;1.55;;;;;;;;;;5091035;28;20041;-83
2022/01/20 04:21:45;;;;;;;12.50;1.17;;;;;;;;;;5089709;28;20177;-79
2022/01/20 04:24:11;;;;;;;11.02;1.50;;;;;;;;;;5111057;28;20568;-79
2022/01/20 04:26:39;;;;;;;7.78;1.42;;;;;;;;;;5092704;28;20049;-80
2022/01/20 04:29:06;;;;;;;8.57;1.10;;;;;;;;;;5092793;28;20055;-79
2022/01/20 04:31:34;;;;;;;7.90;0.90;;;;;;;;;;5110951;27;20139;-80
2022/01/20 04:34:01;;;;;;;9.00;1.20;;;;;;;;;;5111175;28;20058;-82
2022/01/20 04:36:31;;;;;;;12.60;1.58;;;;;;;;;;5093494;28;20060;-83
2022/01/20 04:39:00;;;;;;;12.75;1.17;;;;;;;;;;5106429;28;20603;-80
2022/01/20 04:41:30;;;;;;;10.10;1.13;;;;;;;;;;5093009;28;20048;-82
2022/01/20 04:43:57;;;;;;;10.48;1.52;;;;;;;;;;5098541;28;20719;-80
2022/01/20 04:46:47;;;;;;;9.77;1.35;;;;;;;;;;5091850;28;20059;-79
2022/01/20 04:57:46;;;;;;;16.60;1.73;;;;;;;;;;5111333;28;20072;-80
2022/01/20 05:00:12;;;;;;;14.40;1.73;;;;;;;;;;5089248;28;20061;-80
2022/01/20 05:02:39;;;;;;;17.05;2.35;;;;;;;;;;5090879;28;20080;-80
2022/01/20 05:05:08;;;;;;;13.65;2.28;;;;;;;;;;5091993;27;20048;-80
2022/01/20 05:07:34;;;;;;;12.93;1.85;;;;;;;;;;5091789;28;20056;-80
2022/01/20 05:10:05;;;;;;;17.77;2.25;;;;;;;;;;5110534;28;20084;-80
2022/01/20 05:12:59;;;;;;;17.33;2.03;;;;;;;;;;5091835;28;20056;-80
2022/01/20 05:15:19;;;;;;;16.02;2.00;;;;;;;;;;5110101;28;20102;-80
2022/01/20 05:17:45;;;;;;;15.82;1.90;;;;;;;;;;5093772;27;20079;-80
2022/01/20 05:20:12;;;;;;;15.02;1.85;;;;;;;;;;5111525;28;20092;-81
2022/01/20 05:22:43;;;;;;;15.18;1.85;;;;;;;;;;5093300;28;20056;-80
2022/01/20 05:25:10;;;;;;;17.50;2.03;;;;;;;;;;5110075;27;20093;-80
2022/01/20 05:27:37;;;;;;;28.15;2.17;;;;;;;;;;5091331;28;20076;-82
2022/01/20 05:30:03;;;;;;;17.65;2.33;;;;;;;;;;5094326;27;20144;-80
2022/01/20 05:32:30;;;;;;;24.55;2.58;;;;;;;;;;5092499;28;20052;-80
2022/01/20 05:34:58;;;;;;;16.88;2.22;;;;;;;;;;5108854;28;20056;-80
2022/01/20 05:37:24;;;;;;;17.48;2.78;;;;;;;;;;5092495;28;20063;-79
2022/01/20 05:39:50;;;;;;;15.07;2.53;;;;;;;;;;5110357;28;20088;-79
2022/01/20 05:42:17;;;;;;;23.27;2.65;;;;;;;;;;5092369;28;20044;-79
2022/01/20 05:44:45;;;;;;;20.13;2.40;;;;;;;;;;5091834;28;20072;-81
2022/01/20 05:47:14;;;;;;;24.02;3.38;;;;;;;;;;5079639;28;20059;-81
2022/01/20 05:49:40;;;;;;;21.58;2.72;;;;;;;;;;5091412;28;20052;-81
2022/01/20 05:52:07;;;;;;;33.92;3.17;;;;;;;;;;5091845;28;20110;-80
2022/01/20 05:54:33;;;;;;;20.85;2.88;;;;;;;;;;5091517;28;20052;-80
2022/01/20 05:57:00;;;;;;;16.35;2.28;;;;;;;;;;5091905;28;20056;-79
2022/01/20 05:59:26;;;;;;;16.65;2.15;;;;;;;;;;5093466;28;20585;-83
2022/01/20 06:01:58;;;;;;;15.25;2.28;;;;;;;;;;5110169;28;20523;-83
2022/01/20 06:04:29;;;;;;;14.27;1.83;;;;;;;;;;5111398;28;20159;-80
2022/01/20 06:06:56;;;;;;;14.02;1.60;;;;;;;;;;5110892;27;20048;-80
2022/01/20 06:09:23;;;;;;;14.65;1.98;;;;;;;;;;5093376;28;20052;-81
2022/01/20 06:11:49;;;;;;;21.83;2.30;;;;;;;;;;5110456;28;20341;-82
2022/01/20 06:14:15;;;;;;;18.95;2.58;;;;;;;;;;5092416;28;20064;-83
2022/01/20 06:16:43;;;;;;;10.98;2.00;;;;;;;;;;5092169;28;20112;-81
2022/01/20 06:19:09;;;;;;;15.73;2.00;;;;;;;;;;5089724;28;20048;-81
2022/01/20 06:21:37;;;;;;;13.40;2.28;;;;;;;;;;5107359;28;20536;-82
2022/01/20 06:24:04;;;;;;;12.20;1.70;;;;;;;;;;5092540;28;20087;-83
2022/01/20 06:26:30;;;;;;;13.57;2.75;;;;;;;;;;5091896;28;20171;-81
2022/01/20 06:28:56;;;;;;;13.80;1.80;;;;;;;;;;5110324;28;20088;-81
2022/01/20 06:31:23;;;;;;;16.13;2.25;;;;;;;;;;5120698;27;20052;-81
2022/01/20 06:33:49;;;;;;;11.30;2.00;;;;;;;;;;5103060;28;20447;-81
2022/01/20 06:36:16;;;;;;;13.60;2.00;;;;;;;;;;5109495;28;20056;-81
2022/01/20 06:38:43;;;;;;;16.50;2.55;;;;;;;;;;5109582;28;20141;-81
2022/01/20 06:41:09;;;;;;;10.77;1.63;;;;;;;;;;5110136;28;20973;-81
2022/01/20 06:43:36;;;;;;;18.92;1.88;;;;;;;;;;5110177;28;20052;-80
2022/01/20 06:46:02;;;;;;;12.10;2.17;;;;;;;;;;5110139;27;20058;-81
2022/01/20 06:48:30;;;;;;;11.93;2.60;;;;;;;;;;5110053;28;20059;-81
2022/01/20 06:50:56;;;;;;;23.55;2.10;;;;;;;;;;5099019;27;20124;-80
2022/01/20 06:53:22;;;;;;;8.15;1.52;;;;;;;;;;5104082;27;20544;-81
2022/01/20 06:55:49;;;;;;;11.30;1.77;;;;;;;;;;5110737;27;20095;-80
2022/01/20 06:58:15;;;;;;;13.57;1.70;;;;;;;;;;5090184;28;20063;-82
2022/01/20 07:00:42;;;;;;;14.02;1.45;;;;;;;;;;5090241;28;20055;-84
2022/01/20 07:03:08;;;;;;;7.10;1.40;;;;;;;;;;5106861;28;20150;-81
2022/01/20 07:05:35;;;;;;;16.05;2.10;;;;;;;;;;5092524;27;20080;-81
2022/01/20 07:08:01;;;;;;;19.38;2.08;;;;;;;;;;5089426;28;20082;-81
2022/01/20 07:10:27;;;;;;;9.27;1.70;;;;;;;;;;5089902;28;20076;-81
2022/01/20 07:12:54;;;;;;;18.75;2.03;;;;;;;;;;5107595;28;20056;-82
2022/01/20 07:15:20;;;;;;;11.23;1.80;;;;;;;;;;5092423;28;20099;-83
2022/01/20 07:17:47;;;;;;;14.88;2.10;;;;;;;;;;5094328;28;20106;-83
2022/01/20 07:20:14;;;;;;;13.77;1.60;;;;;;;;;;5092840;28;20101;-81
2022/01/20 07:22:41;;;;;;;8.95;1.33;;;;;;;;;;5095047;27;20093;-83
2022/01/20 07:25:07;;;;;;;14.05;2.03;;;;;;;;;;5092962;27;20121;-82
2022/01/20 07:27:34;;;;;;;13.88;1.83;;;;;;;;;;5092427;27;20087;-81
2022/01/20 07:30:20;;;;;;;9.48;1.85;;;;;;;;;;5103597;28;20052;-77
2022/01/20 07:32:47;;;;;;;6.22;1.10;;;;;;;;;;5085558;28;20597;-79
2022/01/20 07:35:13;;;;;;;10.48;1.23;;;;;;;;;;5106764;27;20113;-82
2022/01/20 07:37:40;;;;;;;13.05;1.30;;;;;;;;;;5106154;28;20167;-80
2022/01/20 07:40:06;;;;;;;11.43;1.60;;;;;;;;;;5104112;28;20063;-78
2022/01/20 07:42:33;;;;;;;8.63;1.88;;;;;;;;;;5106041;27;20091;-77
2022/01/20 07:44:59;;;;;;;12.65;1.40;;;;;;;;;;5089638;28;20117;-78
2022/01/20 07:47:26;;;;;;;11.70;1.25;;;;;;;;;;5107313;28;20916;-80
2022/01/20 07:49:52;;;;;;;13.05;1.98;;;;;;;;;;5088621;28;20083;-79
2022/01/20 07:52:19;;;;;;;8.95;1.92;;;;;;;;;;5107433;28;20063;-77
2022/01/20 07:54:45;;;;;;;17.00;2.42;;;;;;;;;;5092440;28;20548;-78
2022/01/20 07:57:12;;;;;;;9.45;2.03;;;;;;;;;;5100097;28;20059;-78
2022/01/20 07:59:38;;;;;;;11.15;2.22;;;;;;;;;;5103067;27;20083;-82
2022/01/20 08:02:05;;;;;;;9.57;1.38;;;;;;;;;;5107157;27;20619;-79
2022/01/20 08:04:31;;;;;;;14.55;2.00;;;;;;;;;;5089792;28;20129;-77
2022/01/20 08:06:58;;;;;;;11.55;1.77;;;;;;;;;;5109341;27;20075;-77
2022/01/20 08:09:24;;;;;;;10.95;1.60;;;;;;;;;;5087633;28;20093;-77
2022/01/20 08:12:11;;;;;;;12.43;1.50;;;;;;;;;;5094831;27;20503;-78
2022/01/20 08:14:37;;;;;;;12.30;1.25;;;;;;;;;;5088881;28;20072;-77
2022/01/20 08:17:03;;;;;;;11.82;1.63;;;;;;;;;;5086247;27;20157;-79
2022/01/20 08:19:30;;;;;;;8.10;1.52;;;;;;;;;;5087015;28;20083;-79
2022/01/20 08:21:57;;;;;;;9.75;1.50;;;;;;;;;;5105057;28;20051;-79
2022/01/20 08:24:23;;;;;;;10.90;1.30;;;;;;;;;;5104782;28;20052;-78
2022/01/20 08:26:49;;;;;;;14.25;1.52;;;;;;;;;;5102190;27;20099;-77
2022/01/20 08:29:16;;;;;;;7.47;1.17;;;;;;;;;;5087898;28;20067;-77
2022/01/20 08:31:42;;;;;;;15.73;1.85;;;;;;;;;;5105022;28;20511;-81
2022/01/20 08:34:08;;;;;;;9.88;1.75;;;;;;;;;;5106803;27;20074;-80
2022/01/20 08:36:35;;;;;;;11.05;1.67;;;;;;;;;;5103017;28;20577;-79
2022/01/20 08:39:02;;;;;;;19.17;1.85;;;;;;;;;;5090841;28;20103;-78
2022/01/20 08:41:28;;;;;;;14.68;1.77;;;;;;;;;;5110380;28;20056;-77
2022/01/20 08:43:55;;;;;;;11.60;1.83;;;;;;;;;;5109821;28;20056;-81
2022/01/20 08:46:23;;;;;;;11.98;1.95;;;;;;;;;;5091106;28;20052;-78
2022/01/20 08:48:50;;;;;;;8.80;1.83;;;;;;;;;;5090653;28;20055;-78
2022/01/20 08:51:16;;;;;;;16.63;3.17;;;;;;;;;;5091691;28;20083;-79
2022/01/20 08:53:43;;;;;;;9.40;1.65;;;;;;;;;;5090758;28;20080;-78
2022/01/20 08:56:09;;;;;;;19.30;2.20;;;;;;;;;;5109654;27;20118;-77
2022/01/20 08:58:36;;;;;;;14.70;1.83;;;;;;;;;;5109828;28;20048;-81
2022/01/20 09:01:03;;;;;;;14.30;1.95;;;;;;;;;;5109281;28;20588;-79
2022/01/20 09:03:32;;;;;;;10.98;1.90;;;;;;;;;;5108082;28;20091;-77
2022/01/20 09:05:58;;;;;;;12.38;1.92;;;;;;;;;;5109057;28;20048;-79
2022/01/20 09:08:24;;;;;;;11.80;1.58;;;;;;;;;;5091571;28;20105;-76
2022/01/20 09:10:56;;;;;;;;;;;;;;;;;;5092259;28;20086;-76
2022/01/20 09:16:08;;;;;;;13.20;1.83;;;;;;;;;;5108835;27;20566;-80
2022/01/20 09:18:35;;;;;;;20.52;3.00;;;;;;;;;;5109306;28;20106;-79
2022/01/20 09:21:02;;;;;;;14.75;2.13;;;;;;;;;;5109741;28;20198;-76
2022/01/20 09:23:29;;;;;;;18.08;2.05;;;;;;;;;;5091242;28;20496;-76
2022/01/20 09:25:55;;;;;;;13.75;2.00;;;;;;;;;;5089168;28;20939;-77
2022/01/20 09:28:22;;;;;;;18.48;2.25;;;;;;;;;;5105692;28;20140;-79
2022/01/20 09:30:50;;;;;;;11.30;2.05;;;;;;;;;;5109521;28;20140;-76
2022/01/20 09:33:25;;;;;;;15.98;2.53;;;;;;;;;;5109118;28;20101;-76
2022/01/20 09:35:52;;;;;;;15.65;2.38;;;;;;;;;;5091049;28;20052;-78
2022/01/20 09:38:18;;;;;;;11.88;2.20;;;;;;;;;;5109147;28;20150;-77
2022/01/20 09:40:44;;;;;;;12.32;1.95;;;;;;;;;;5109046;28;20533;-77
2022/01/20 09:43:14;;;;;;;12.43;2.35;;;;;;;;;;5090034;28;20056;-77
2022/01/20 09:45:40;;;;;;;7.65;1.40;;;;;;;;;;5108386;27;20048;-77
2022/01/20 09:48:09;;;;;;;16.50;2.17;;;;;;;;;;5090762;28;20102;-76
2022/01/20 09:50:35;;;;;;;10.32;1.92;;;;;;;;;;5090662;28;20056;-76
2022/01/20 09:53:02;;;;;;;13.88;2.28;;;;;;;;;;5108742;28;20060;-77
2022/01/20 09:55:28;;;;;;;8.73;1.70;;;;;;;;;;5108019;28;20513;-77
2022/01/20 09:57:55;;;;;;;10.52;2.78;;;;;;;;;;5109308;28;20109;-77
2022/01/20 10:00:21;;;;;;;11.30;2.17;;;;;;;;;;5107398;28;20091;-76
2022/01/20 10:02:56;;;;;;;13.77;1.88;;;;;;;;;;5109653;28;20115;-77
2022/01/20 10:05:27;;;;;;;10.05;1.88;;;;;;;;;;5090386;28;20048;-76
2022/01/20 10:07:59;;;;;;;13.20;2.00;;;;;;;;;;5108266;28;20101;-80
2022/01/20 10:10:34;;;;;;;8.45;1.13;;;;;;;;;;5109010;28;20137;-77
2022/01/20 10:13:08;;;;;;;14.40;1.58;;;;;;;;;;5108215;28;20052;-76
2022/01/20 10:15:35;;;;;;;12.60;1.40;;;;;;;;;;5108234;28;20573;-77
2022/01/20 10:18:09;;;;;;;18.17;1.95;;;;;;;;;;5107178;28;20082;-77
2022/01/20 10:20:35;;;;;;;13.43;1.40;;;;;;;;;;5108149;28;20106;-77
2022/01/20 10:23:02;;;;;;;10.07;2.05;;;;;;;;;;5108634;28;20051;-81
2022/01/20 10:25:33;;;;;;;11.05;1.65;;;;;;;;;;5089893;28;20092;-77
2022/01/20 10:27:59;;;;;;;;;;;;;;;;;;5108600;28;20060;-77
2022/01/20 10:30:27;;;;;;;15.75;1.88;;;;;;;;;;5107541;28;46492;-76
2022/01/20 10:32:58;;;;;;;11.05;1.42;;;;;;;;;;5089327;28;20048;-76
2022/01/20 10:35:26;;;;;;;13.23;2.83;;;;;;;;;;5093734;28;20093;-78
2022/01/20 10:38:02;;;;;;;9.48;1.48;;;;;;;;;;5091203;28;20490;-80
2022/01/20 10:40:28;;;;;;;13.63;2.00;;;;;;;;;;5107785;28;20052;-77
2022/01/20 10:42:54;;;;;;;12.70;1.50;;;;;;;;;;5089940;28;20056;-77
2022/01/20 10:45:25;;;;;;;19.15;1.88;;;;;;;;;;5108123;28;20052;-80
2022/01/20 10:47:53;;;;;;;14.52;2.03;;;;;;;;;;5107719;28;20050;-77
2022/01/20 10:50:23;;;;;;;10.52;1.77;;;;;;;;;;5107809;28;20122;-77
2022/01/20 10:52:52;;;;;;;8.88;1.40;;;;;;;;;;5107025;28;20055;-77
2022/01/20 10:55:20;;;;;;;9.10;1.35;;;;;;;;;;5107571;27;20159;-76
2022/01/20 10:57:47;;;;;;;13.23;1.98;;;;;;;;;;5088546;28;20546;-77
2022/01/20 11:00:19;;;;;;;11.52;1.60;;;;;;;;;;5088927;28;20145;-79
2022/01/20 11:02:55;;;;;;;9.85;1.48;;;;;;;;;;5107707;28;20048;-76
2022/01/20 11:05:23;;;;;;;12.02;1.50;;;;;;;;;;5089119;28;20051;-79
2022/01/20 11:07:49;;;;;;;10.00;1.35;;;;;;;;;;5107610;28;20052;-76
2022/01/20 11:10:17;;;;;;;6.88;1.60;;;;;;;;;;5107823;28;20079;-77
2022/01/20 11:12:43;;;;;;;8.63;1.48;;;;;;;;;;5107006;28;20048;-77
2022/01/20 11:15:11;;;;;;;9.38;1.15;;;;;;;;;;5107503;28;20144;-77
2022/01/20 11:17:40;;;;;;;7.10;1.30;;;;;;;;;;5106655;28;20136;-77
2022/01/20 11:20:12;;;;;;;9.05;1.23;;;;;;;;;;5089305;27;20521;-80
2022/01/20 11:22:59;;;;;;;11.00;1.88;;;;;;;;;;5104161;28;20509;-79
2022/01/20 11:25:26;;;;;;;8.15;1.15;;;;;;;;;;5102606;28;20106;-79
2022/01/20 11:28:32;;;;;;;10.90;1.15;;;;;;;;;;5103907;28;20052;-78
2022/01/20 11:31:01;;;;;;;9.40;1.42;;;;;;;;;;5013147;28;20098;-80
2022/01/20 11:33:32;;;;;;;10.75;1.30;;;;;;;;;;5005378;28;20140;-79
2022/01/20 11:35:59;;;;;;;5.28;1.45;;;;;;;;;;5051358;28;20083;-78
2022/01/20 11:38:39;;;;;;;9.13;1.48;;;;;;;;;;5105241;27;20131;-78
2022/01/20 11:41:05;;;;;;;8.03;2.03;;;;;;;;;;5108000;28;20048;-78
2022/01/20 11:43:35;;;;;;;8.82;1.65;;;;;;;;;;5087287;28;20808;-78
2022/01/20 11:46:21;;;;;;;10.57;1.23;;;;;;;;;;5105873;28;20052;-78
2022/01/20 11:48:53;;;;;;;9.52;1.40;;;;;;;;;;5106826;28;20109;-78
2022/01/20 11:51:20;;;;;;;7.35;1.15;;;;;;;;;;5106253;28;20145;-78
2022/01/20 11:53:54;;;;;;;10.27;1.20;;;;;;;;;;5107364;28;20060;-78
2022/01/20 11:56:27;;;;;;;10.32;1.30;;;;;;;;;;5107246;28;20965;-78
2022/01/20 11:58:54;;;;;;;12.85;1.83;;;;;;;;;;5106107;28;20056;-78
2022/01/20 12:01:21;;;;;;;12.13;1.70;;;;;;;;;;5101229;28;20056;-78
2022/01/20 12:03:51;;;;;;;10.38;2.05;;;;;;;;;;5104188;27;20048;-78
2022/01/20 12:06:23;;;;;;;10.18;1.75;;;;;;;;;;5104957;28;20676;-78
2022/01/20 12:08:57;;;;;;;8.52;1.50;;;;;;;;;;5102731;27;20052;-78
2022/01/20 12:11:55;;;;;;;11.07;1.58;;;;;;;;;;5110313;28;20059;-78
2022/01/20 12:14:32;;;;;;;12.57;1.50;;;;;;;;;;5050515;28;20150;-78
2022/01/20 12:17:06;;;;;;;10.43;1.40;;;;;;;;;;5091287;27;20084;-78
2022/01/20 12:19:32;;;;;;;9.85;1.90;;;;;;;;;;5111216;27;20113;-78
2022/01/20 12:22:01;;;;;;;9.27;1.88;;;;;;;;;;5109029;28;20097;-78
2022/01/20 12:24:27;;;;;;;11.15;1.58;;;;;;;;;;5092094;28;20047;-78
2022/01/20 12:26:54;;;;;;;6.20;1.23;;;;;;;;;;5110215;27;20086;-78
2022/01/20 12:29:20;;;;;;;9.60;1.85;;;;;;;;;;5090832;28;22374;-78
2022/01/20 12:31:55;;;;;;;10.63;1.83;;;;;;;;;;5110299;28;20110;-78
2022/01/20 12:34:21;;;;;;;8.93;1.48;;;;;;;;;;5089326;28;20122;-78
2022/01/20 12:36:51;;;;;;;12.98;1.70;;;;;;;;;;5109784;28;20514;-78
2022/01/20 12:39:26;;;;;;;13.17;2.03;;;;;;;;;;5091336;28;20090;-78
2022/01/20 12:41:59;;;;;;;16.45;1.73;;;;;;;;;;5113442;28;20255;-79
2022/01/20 12:44:47;;;;;;;11.95;1.90;;;;;;;;;;5111560;28;20087;-79
2022/01/20 12:47:17;;;;;;;7.53;1.45;;;;;;;;;;5107979;27;20059;-79
2022/01/20 12:49:43;;;;;;;13.80;2.05;;;;;;;;;;5109370;28;20853;-79
2022/01/20 12:52:13;;;;;;;10.02;1.38;;;;;;;;;;5109365;28;20051;-79
2022/01/20 12:54:40;;;;;;;17.20;1.58;;;;;;;;;;5091572;28;20215;-78
2022/01/20 12:57:08;;;;;;;12.45;1.88;;;;;;;;;;5106600;28;20121;-78
2022/01/20 12:59:36;;;;;;;10.80;1.70;;;;;;;;;;5100573;27;20061;-78
2022/01/20 13:02:07;;;;;;;19.67;2.15;;;;;;;;;;5107843;28;20106;-78
2022/01/20 13:04:35;;;;;;;10.38;1.73;;;;;;;;;;5109098;28;20056;-78
2022/01/20 13:07:03;;;;;;;19.30;1.77;;;;;;;;;;5090978;28;20083;-78
2022/01/20 13:09:36;;;;;;;10.10;1.67;;;;;;;;;;5081054;28;20121;-78
2022/01/20 13:12:03;;;;;;;10.65;1.65;;;;;;;;;;5108196;28;20105;-78
2022/01/20 13:14:32;;;;;;;13.48;1.95;;;;;;;;;;5109690;28;20567;-78
2022/01/20 13:16:59;;;;;;;12.35;1.98;;;;;;;;;;5109106;27;20072;-79
2022/01/20 13:19:36;;;;;;;11.95;2.13;;;;;;;;;;5109338;27;20113;-78
2022/01/20 13:22:05;;;;;;;8.05;1.30;;;;;;;;;;5089049;28;20060;-78
2022/01/20 13:24:33;;;;;;;10.43;1.70;;;;;;;;;;5089289;28;20056;-80
2022/01/20 13:27:00;;;;;;;10.50;1.75;;;;;;;;;;5090526;28;20072;-81
2022/01/20 13:29:38;;;;;;;13.02;1.90;;;;;;;;;;5108738;27;20086;-80
2022/01/20 13:32:06;;;;;;;14.32;1.73;;;;;;;;;;5108090;27;20072;-82
2022/01/20 13:34:32;;;;;;;8.60;1.63;;;;;;;;;;5109019;27;20105;-78
2022/01/20 13:36:59;;;;;;;8.95;2.00;;;;;;;;;;5109057;27;20052;-78
2022/01/20 13:39:31;;;;;;;13.35;1.45;;;;;;;;;;5106764;28;20567;-77
2022/01/20 13:42:04;;;;;;;7.63;2.00;;;;;;;;;;5107354;28;20075;-77
2022/01/20 13:47:16;;;;;;;11.50;1.48;;;;;;;;;;5109049;28;20101;-80
2022/01/20 13:49:48;;;;;;;10.57;1.90;;;;;;;;;;5108866;28;20072;-79
2022/01/20 13:52:18;;;;;;;10.90;1.38;;;;;;;;;;5108976;28;20141;-76
2022/01/20 13:54:49;;;;;;;9.05;1.40;;;;;;;;;;5108110;28;20096;-76
2022/01/20 13:57:37;;;;;;;7.40;1.20;;;;;;;;;;5093224;28;20048;-76
2022/01/20 14:00:04;;;;;;;8.48;1.65;;;;;;;;;;5100764;28;20438;-77
2022/01/20 14:02:30;;;;;;;10.23;1.35;;;;;;;;;;5107462;27;20052;-78
2022/01/20 14:04:57;;;;;;;12.80;1.88;;;;;;;;;;5087604;27;20052;-77
2022/01/20 14:07:23;;;;;;;10.25;1.52;;;;;;;;;;5108055;28;20060;-80
2022/01/20 14:09:50;;;;;;;8.73;1.33;;;;;;;;;;5108282;28;20048;-77
2022/01/20 14:12:16;;;;;;;11.48;1.67;;;;;;;;;;5108821;28;20051;-77
2022/01/20 14:14:43;;;;;;;13.73;1.80;;;;;;;;;;5108688;28;20590;-78
2022/01/20 14:17:17;;;;;;;9.40;1.67;;;;;;;;;;5093217;28;20048;-81
2022/01/20 14:19:45;;;;;;;12.27;1.38;;;;;;;;;;5108356;28;20055;-77
2022/01/20 14:22:12;;;;;;;13.27;1.92;;;;;;;;;;5108539;28;20052;-76
2022/01/20 14:24:38;;;;;;;13.00;1.67;;;;;;;;;;5108805;28;20052;-79
2022/01/20 14:27:11;;;;;;;12.65;1.92;;;;;;;;;;5090131;28;20507;-77
2022/01/20 14:29:38;;;;;;;9.02;1.58;;;;;;;;;;5098215;28;20109;-77
2022/01/20 14:32:05;;;;;;;11.65;2.22;;;;;;;;;;5105363;27;20056;-77
2022/01/20 14:34:32;;;;;;;14.75;2.28;;;;;;;;;;5106857;28;20079;-78
2022/01/20 14:36:58;;;;;;;12.52;2.00;;;;;;;;;;5106635;27;20052;-77
2022/01/20 14:39:25;;;;;;;9.43;1.80;;;;;;;;;;5107063;28;20083;-81
2022/01/20 14:41:51;;;;;;;13.45;1.90;;;;;;;;;;5103053;27;20150;-78
2022/01/20 14:44:17;;;;;;;16.70;2.67;;;;;;;;;;5087534;28;20099;-76
2022/01/20 14:46:44;;;;;;;14.88;2.28;;;;;;;;;;5102345;28;20055;-77
2022/01/20 14:49:13;;;;;;;14.00;2.70;;;;;;;;;;5104206;27;20059;-77
2022/01/20 14:51:40;;;;;;;16.60;2.40;;;;;;;;;;5086571;28;20051;-77
2022/01/20 14:54:09;;;;;;;11.65;1.80;;;;;;;;;;5105674;27;20054;-76
2022/01/20 14:56:39;;;;;;;19.35;2.20;;;;;;;;;;5106418;28;20055;-81
2022/01/20 14:59:05;;;;;;;11.07;2.13;;;;;;;;;;5105861;28;20093;-76
2022/01/20 15:01:37;;;;;;;12.00;1.63;;;;;;;;;;5088372;28;20067;-77
2022/01/20 15:04:05;;;;;;;9.93;2.08;;;;;;;;;;5088641;27;20056;-77
2022/01/20 15:06:32;;;;;;;18.20;3.72;;;;;;;;;;5087713;28;20063;-76
2022/01/20 15:08:59;;;;;;;12.13;1.98;;;;;;;;;;5088641;28;20059;-81
2022/01/20 15:11:26;;;;;;;11.43;1.80;;;;;;;;;;5103711;27;20052;-77
2022/01/20 15:13:53;;;;;;;10.57;1.98;;;;;;;;;;5105462;27;20086;-80
2022/01/20 15:16:19;;;;;;;13.85;1.88;;;;;;;;;;5080986;28;20048;-77
2022/01/20 15:18:45;;;;;;;15.43;1.98;;;;;;;;;;5106329;27;20083;-77
2022/01/20 15:21:14;;;;;;;15.43;1.95;;;;;;;;;;5106866;28;20056;-78
2022/01/20 15:23:41;;;;;;;10.98;1.55;;;;;;;;;;5099285;28;20041;-77
2022/01/20 15:26:08;;;;;;;6.57;1.50;;;;;;;;;;5090402;27;20137;-77
2022/01/20 15:28:35;;;;;;;11.38;1.75;;;;;;;;;;5104769;27;20063;-77
2022/01/20 15:31:01;;;;;;;8.73;1.15;;;;;;;;;;5105851;27;20113;-79
2022/01/20 15:33:28;;;;;;;8.68;1.08;;;;;;;;;;5086924;28;20469;-77
2022/01/20 15:35:55;;;;;;;4.43;1.08;;;;;;;;;;5105204;28;20934;-77
2022/01/20 15:38:22;;;;;;;7.38;0.90;;;;;;;;;;5106133;28;20091;-76
2022/01/20 15:40:48;;;;;;;6.63;2.05;;;;;;;;;;5087686;28;20088;-78